createdAt,value
2022-11-17T00:00:29.067Z,0.40
2022-11-17T00:02:56.221Z,0.40
2022-11-17T00:05:23.658Z,0.30
2022-11-17T00:07:51.254Z,0.40
2022-11-17T00:10:18.546Z,0.40
2022-11-17T00:13:06.697Z,0.40
2022-11-17T00:15:33.888Z,0.40
2022-11-17T00:18:19.411Z,0.50
2022-11-17T00:21:05.023Z,0.37
2022-11-17T00:23:47.791Z,0.40
2022-11-17T00:26:20.419Z,0.40
2022-11-17T00:28:51.105Z,0.40
2022-11-17T00:31:36.924Z,0.57
2022-11-17T00:34:07.234Z,0.40
2022-11-17T00:36:40.434Z,0.50
2022-11-17T00:39:08.755Z,0.50
2022-11-17T00:41:36.464Z,0.57
2022-11-17T00:44:04.108Z,0.50
2022-11-17T00:46:31.302Z,0.50
2022-11-17T00:48:58.574Z,0.43
2022-11-17T00:51:25.846Z,0.50
2022-11-17T00:53:53.224Z,0.50
2022-11-17T00:56:20.585Z,0.53
2022-11-17T00:58:48.194Z,0.50
2022-11-17T01:01:15.711Z,0.50
2022-11-17T01:03:42.912Z,0.37
2022-11-17T01:06:16.473Z,0.60
2022-11-17T01:08:43.939Z,0.50
2022-11-17T01:11:19.289Z,0.47
2022-11-17T01:13:48.294Z,0.40
2022-11-17T01:16:17.870Z,0.37
2022-11-17T01:18:48.659Z,0.30
2022-11-17T01:21:19.208Z,0.30
2022-11-17T01:23:47.436Z,0.40
2022-11-17T01:26:23.548Z,0.40
2022-11-17T01:28:51.664Z,0.30
2022-11-17T01:31:24.106Z,0.50
2022-11-17T01:33:51.794Z,0.30
2022-11-17T01:36:21.845Z,0.43
2022-11-17T01:38:50.602Z,0.30
2022-11-17T01:41:23.474Z,0.40
2022-11-17T01:43:53.503Z,0.30
2022-11-17T01:46:26.446Z,0.50
2022-11-17T01:48:59.118Z,0.30
2022-11-17T01:51:28.286Z,0.40
2022-11-17T01:53:55.528Z,0.43
2022-11-17T01:56:30.351Z,0.40
2022-11-17T01:59:07.965Z,0.40
2022-11-17T02:01:35.347Z,0.40
2022-11-17T02:04:02.652Z,0.40
2022-11-17T02:06:36.254Z,0.40
2022-11-17T02:09:04.286Z,0.30
2022-11-17T02:11:36.342Z,0.30
2022-11-17T02:14:05.443Z,0.30
2022-11-17T02:16:32.756Z,0.40
2022-11-17T02:19:00.347Z,0.40
2022-11-17T02:21:50.416Z,0.23
2022-11-17T02:24:42.193Z,0.40
2022-11-17T02:27:33.891Z,0.43
2022-11-17T02:30:07.695Z,0.47
2022-11-17T02:32:53.695Z,0.30
2022-11-17T02:35:45.552Z,0.50
2022-11-17T02:38:40.371Z,0.30
2022-11-17T02:41:19.265Z,0.43
2022-11-17T02:44:28.428Z,0.53
2022-11-17T02:47:02.607Z,0.50
2022-11-17T02:49:43.757Z,0.50
2022-11-17T02:52:11.202Z,0.40
2022-11-17T02:54:38.403Z,0.60
2022-11-17T02:57:05.703Z,0.50
2022-11-17T02:59:49.001Z,0.43
2022-11-17T03:02:50.326Z,0.47
2022-11-17T03:05:20.586Z,0.53
2022-11-17T03:08:02.713Z,0.50
2022-11-17T03:10:45.173Z,0.50
2022-11-17T03:13:26.262Z,0.50
2022-11-17T03:16:20.431Z,0.30
2022-11-17T03:19:02.657Z,0.60
2022-11-17T03:21:37.162Z,0.47
2022-11-17T03:24:23.310Z,0.80
2022-11-17T03:27:15.573Z,0.70
2022-11-17T03:29:47.924Z,0.50
2022-11-17T03:32:17.148Z,0.53
2022-11-17T03:34:52.143Z,0.40
2022-11-17T03:37:21.481Z,0.63
2022-11-17T03:39:54.087Z,0.60
2022-11-17T03:42:32.282Z,0.73
2022-11-17T03:45:13.765Z,0.90
2022-11-17T03:47:54.671Z,0.67
2022-11-17T03:50:48.226Z,0.63
2022-11-17T03:53:15.565Z,0.40
2022-11-17T03:56:09.395Z,0.40
2022-11-17T03:58:44.672Z,0.50
2022-11-17T04:01:13.237Z,0.70
2022-11-17T04:03:40.458Z,0.50
2022-11-17T04:06:07.906Z,0.50
2022-11-17T04:08:35.265Z,0.40
2022-11-17T04:11:20.745Z,0.40
2022-11-17T04:14:06.564Z,0.50
2022-11-17T04:16:33.775Z,0.30
2022-11-17T04:19:00.998Z,0.40
2022-11-17T04:21:28.211Z,0.50
2022-11-17T04:23:56.202Z,0.50
2022-11-17T04:26:42.368Z,0.57
2022-11-17T04:29:09.632Z,0.40
2022-11-17T04:31:36.826Z,0.80
2022-11-17T04:34:05.967Z,0.50
2022-11-17T04:36:46.052Z,0.50
2022-11-17T04:39:15.175Z,0.43
2022-11-17T04:41:54.829Z,0.60
2022-11-17T04:44:24.508Z,0.40
2022-11-17T04:46:52.301Z,0.40
2022-11-17T04:49:20.861Z,0.47
2022-11-17T04:51:48.950Z,0.50
2022-11-17T04:54:18.922Z,0.47
2022-11-17T04:56:48.158Z,0.40
2022-11-17T04:59:15.842Z,0.40
2022-11-17T05:01:43.690Z,0.47
2022-11-17T05:04:12.751Z,0.47
2022-11-17T05:06:45.149Z,0.50
2022-11-17T05:09:16.960Z,0.37
2022-11-17T05:12:03.094Z,0.50
2022-11-17T05:14:30.530Z,0.50
2022-11-17T05:17:10.096Z,0.40
2022-11-17T05:19:46.562Z,0.50
2022-11-17T05:22:35.777Z,0.47
2022-11-17T05:25:04.081Z,0.50
2022-11-17T05:27:31.698Z,0.63
2022-11-17T05:29:58.927Z,0.60
2022-11-17T05:32:26.196Z,0.50
2022-11-17T05:34:53.412Z,0.40
2022-11-17T05:37:20.929Z,0.77
2022-11-17T05:39:48.112Z,0.50
2022-11-17T05:42:15.356Z,0.50
2022-11-17T05:44:42.605Z,0.60
2022-11-17T05:47:09.750Z,0.40
2022-11-17T05:49:37.175Z,0.70
2022-11-17T05:52:04.429Z,0.43
2022-11-17T05:54:31.770Z,0.50
2022-11-17T05:57:13.411Z,0.50
2022-11-17T05:59:53.649Z,0.60
2022-11-17T06:02:37.135Z,0.50
2022-11-17T06:05:04.879Z,0.50
2022-11-17T06:07:32.519Z,0.43
2022-11-17T06:09:59.841Z,0.40
2022-11-17T06:12:27.048Z,0.60
2022-11-17T06:14:54.356Z,0.60
2022-11-17T06:17:32.109Z,0.40
2022-11-17T06:20:12.589Z,0.40
2022-11-17T06:22:42.906Z,0.40
2022-11-17T06:25:14.735Z,0.60
2022-11-17T06:27:42.227Z,0.60
2022-11-17T06:30:09.945Z,0.30
2022-11-17T06:32:39.023Z,0.80
2022-11-17T06:35:10.370Z,0.40
2022-11-17T06:37:37.445Z,0.30
2022-11-17T06:40:05.457Z,0.60
2022-11-17T06:42:51.153Z,0.47
2022-11-17T06:45:18.510Z,0.60
2022-11-17T06:47:45.750Z,0.50
2022-11-17T06:50:12.960Z,0.40
2022-11-17T06:52:40.199Z,0.30
2022-11-17T06:55:08.049Z,0.40
2022-11-17T06:57:35.279Z,0.30
2022-11-17T07:00:02.825Z,0.37
2022-11-17T07:02:32.620Z,0.40
2022-11-17T07:04:59.971Z,0.50
2022-11-17T07:07:27.289Z,0.40
2022-11-17T07:09:54.680Z,0.70
2022-11-17T07:12:21.844Z,0.40
2022-11-17T07:14:48.993Z,0.40
2022-11-17T07:17:16.234Z,0.40
2022-11-17T07:19:43.513Z,0.40
2022-11-17T07:22:10.782Z,0.40
2022-11-17T07:24:37.911Z,0.40
2022-11-17T07:27:06.579Z,0.50
2022-11-17T07:29:34.130Z,0.50
2022-11-17T07:32:01.304Z,0.60
2022-11-17T07:34:29.104Z,1.03
2022-11-17T07:36:56.504Z,0.40
2022-11-17T07:39:23.693Z,0.40
2022-11-17T07:41:50.852Z,0.50
2022-11-17T07:44:17.996Z,0.50
2022-11-17T07:46:45.214Z,0.70
2022-11-17T07:49:12.459Z,0.50
2022-11-17T07:51:39.731Z,0.70
2022-11-17T07:54:07.151Z,0.50
2022-11-17T07:56:34.772Z,0.50
2022-11-17T07:59:01.988Z,0.50
2022-11-17T08:01:29.813Z,0.57
2022-11-17T08:03:58.002Z,0.70
2022-11-17T08:06:25.525Z,0.63
2022-11-17T08:08:53.787Z,0.90
2022-11-17T08:11:21.563Z,0.50
2022-11-17T08:13:50.471Z,0.50
2022-11-17T08:16:17.960Z,0.60
2022-11-17T08:18:51.684Z,0.50
2022-11-17T08:21:19.533Z,0.40
2022-11-17T08:23:51.017Z,0.70
2022-11-17T08:26:20.583Z,0.50
2022-11-17T08:28:51.057Z,0.50
2022-11-17T08:31:20.796Z,0.73
2022-11-17T08:33:47.973Z,0.50
2022-11-17T08:36:15.296Z,0.50
2022-11-17T08:38:42.539Z,0.53
2022-11-17T08:41:10.484Z,0.70
2022-11-17T08:43:37.808Z,0.60
2022-11-17T08:46:05.276Z,0.57
2022-11-17T08:48:33.403Z,0.80
2022-11-17T08:51:06.496Z,0.50
2022-11-17T08:53:34.050Z,0.60
2022-11-17T08:56:01.280Z,0.50
2022-11-17T08:58:28.673Z,0.77
2022-11-17T09:01:00.977Z,0.40
2022-11-17T09:03:31.121Z,0.60
2022-11-17T09:05:58.366Z,0.47
2022-11-17T09:11:13.316Z,0.50
2022-11-17T09:13:40.938Z,0.50
2022-11-17T09:16:10.499Z,0.70
2022-11-17T09:18:39.204Z,0.70
2022-11-17T09:21:15.715Z,0.67
2022-11-17T09:23:43.186Z,0.60
2022-11-17T09:26:13.325Z,0.63
2022-11-17T09:28:40.964Z,0.70
2022-11-17T09:31:10.172Z,0.63
2022-11-17T09:33:37.873Z,0.77
2022-11-17T09:36:07.696Z,0.70
2022-11-17T09:38:36.569Z,0.80
2022-11-17T09:41:35.814Z,0.70
2022-11-17T09:44:23.427Z,1.00
2022-11-17T09:47:27.544Z,0.97
2022-11-17T09:50:02.646Z,0.80
2022-11-17T09:52:56.674Z,0.63
2022-11-17T09:55:45.732Z,0.90
2022-11-17T09:58:34.799Z,0.60
2022-11-17T10:01:02.364Z,0.70
2022-11-17T10:03:38.824Z,0.90
2022-11-17T10:06:31.330Z,0.70
2022-11-17T10:09:02.920Z,0.90
2022-11-17T10:11:37.856Z,0.90
2022-11-17T10:14:14.260Z,0.80
2022-11-17T10:16:46.227Z,1.03
2022-11-17T10:19:28.335Z,0.70
2022-11-17T10:22:05.477Z,0.80
2022-11-17T10:24:50.614Z,0.80
2022-11-17T10:27:17.788Z,0.80
2022-11-17T10:30:00.972Z,0.87
2022-11-17T10:32:35.021Z,0.73
2022-11-17T10:35:32.650Z,1.00
2022-11-17T10:38:13.366Z,0.80
2022-11-17T10:41:15.880Z,0.77
2022-11-17T10:43:55.709Z,0.80
2022-11-17T10:46:24.186Z,0.70
2022-11-17T10:48:57.458Z,0.83
2022-11-17T10:51:26.841Z,1.03
2022-11-17T10:54:20.987Z,0.70
2022-11-17T10:56:51.746Z,0.70
2022-11-17T10:59:43.665Z,0.60
2022-11-17T11:02:41.096Z,0.70
2022-11-17T11:05:21.374Z,0.43
2022-11-17T11:07:49.128Z,0.90
2022-11-17T11:10:25.760Z,0.90
2022-11-17T11:13:19.428Z,0.90
2022-11-17T11:15:47.540Z,1.00
2022-11-17T11:18:17.122Z,1.03
2022-11-17T11:20:54.438Z,1.00
2022-11-17T11:23:36.688Z,1.57
2022-11-17T11:26:22.957Z,1.80
2022-11-17T11:29:11.455Z,1.70
2022-11-17T11:32:05.732Z,2.00
2022-11-17T11:34:41.954Z,2.00
2022-11-17T11:37:15.262Z,2.13
2022-11-17T11:39:54.420Z,2.53
2022-11-17T11:42:40.842Z,2.37
2022-11-17T11:45:19.134Z,3.27
2022-11-17T11:48:04.638Z,2.87
2022-11-17T11:50:42.464Z,3.33
2022-11-17T11:53:44.918Z,3.67
2022-11-17T11:56:38.317Z,3.70
2022-11-17T11:59:17.779Z,3.70
2022-11-17T12:01:53.458Z,3.67
2022-11-17T12:04:43.874Z,3.20
2022-11-17T12:07:14.027Z,3.17
2022-11-17T12:09:53.207Z,3.00
2022-11-17T12:12:34.169Z,2.90
2022-11-17T12:15:18.388Z,3.07
2022-11-17T12:18:05.069Z,2.60
2022-11-17T12:20:57.836Z,2.90
2022-11-17T12:23:43.829Z,3.00
2022-11-17T12:26:31.396Z,3.13
2022-11-17T12:29:20.494Z,2.80
2022-11-17T12:31:55.254Z,2.70
2022-11-17T12:34:26.565Z,2.90
2022-11-17T12:37:13.317Z,2.87
2022-11-17T12:40:09.912Z,2.57
2022-11-17T12:42:57.513Z,2.40
2022-11-17T12:45:24.693Z,2.37
2022-11-17T12:48:18.218Z,1.90
2022-11-17T12:50:50.556Z,1.30
2022-11-17T12:53:36.931Z,1.20
2022-11-17T12:56:25.151Z,1.10
2022-11-17T12:58:52.334Z,1.20
2022-11-17T13:01:50.664Z,1.07
2022-11-17T13:04:22.822Z,1.00
2022-11-17T13:07:03.347Z,1.13
2022-11-17T13:09:35.415Z,1.20
2022-11-17T13:12:08.216Z,0.73
2022-11-17T13:14:51.043Z,0.80
2022-11-17T13:17:21.613Z,0.70
2022-11-17T13:20:02.704Z,1.00
2022-11-17T13:22:30.262Z,0.70
2022-11-17T13:24:58.039Z,0.50
2022-11-17T13:27:30.447Z,1.00
2022-11-17T13:30:17.899Z,0.80
2022-11-17T13:32:45.246Z,0.83
2022-11-17T13:35:38.449Z,0.57
2022-11-17T13:38:11.708Z,0.60
2022-11-17T13:40:41.779Z,0.60
2022-11-17T13:43:14.001Z,0.50
2022-11-17T13:45:43.432Z,0.50
2022-11-17T13:48:34.420Z,0.40
2022-11-17T13:51:20.421Z,0.40
2022-11-17T13:54:17.909Z,0.50
2022-11-17T13:56:48.181Z,0.30
2022-11-17T13:59:18.431Z,0.30
2022-11-17T14:01:45.771Z,0.40
2022-11-17T14:04:22.371Z,0.30
2022-11-17T14:06:59.010Z,0.40
2022-11-17T14:09:35.680Z,0.40
2022-11-17T14:12:09.775Z,0.47
2022-11-17T14:14:43.899Z,0.30
2022-11-17T14:17:22.289Z,0.30
2022-11-17T14:19:49.746Z,0.40
2022-11-17T14:22:23.454Z,0.47
2022-11-17T14:24:54.872Z,0.30
2022-11-17T14:27:31.970Z,0.30
2022-11-17T14:29:59.203Z,0.27
2022-11-17T14:32:26.561Z,0.27
2022-11-17T14:34:53.823Z,0.20
2022-11-17T14:37:21.157Z,0.30
2022-11-17T14:39:48.672Z,0.33
2022-11-17T14:42:16.102Z,0.30
2022-11-17T14:44:43.513Z,0.30
2022-11-17T14:47:11.096Z,0.40
2022-11-17T14:49:38.637Z,0.17
2022-11-17T14:52:06.230Z,0.20
2022-11-17T14:54:33.438Z,0.20
2022-11-17T14:57:00.707Z,0.20
2022-11-17T14:59:28.013Z,0.30
2022-11-17T15:01:55.291Z,0.20
2022-11-17T15:04:49.912Z,0.20
2022-11-17T15:07:10.089Z,0.20
2022-11-17T15:09:37.462Z,0.20
2022-11-17T15:12:04.911Z,0.20
2022-11-17T15:14:32.253Z,0.40
2022-11-17T15:17:02.552Z,0.30
2022-11-17T15:19:29.753Z,0.20
2022-11-17T15:21:57.733Z,0.30
2022-11-17T15:24:24.981Z,0.37
2022-11-17T15:26:52.167Z,0.77
2022-11-17T15:29:19.590Z,0.20
2022-11-17T15:31:47.435Z,0.30
2022-11-17T15:34:19.946Z,0.40
2022-11-17T15:36:48.608Z,0.30
2022-11-17T15:39:17.098Z,0.30
2022-11-17T15:41:45.560Z,0.40
2022-11-17T15:44:14.056Z,0.40
2022-11-17T15:46:46.947Z,0.50
2022-11-17T15:49:16.212Z,0.40
2022-11-17T15:51:44.867Z,0.40
2022-11-17T15:54:18.440Z,0.50
2022-11-17T15:56:48.336Z,0.40
2022-11-17T15:59:17.142Z,0.30
2022-11-17T16:01:45.776Z,0.40
2022-11-17T16:04:18.736Z,0.50
2022-11-17T16:06:47.102Z,0.50
2022-11-17T16:09:15.446Z,0.60
2022-11-17T16:11:43.421Z,0.50
2022-11-17T16:14:12.056Z,0.53
2022-11-17T16:16:39.851Z,0.53
2022-11-17T16:19:08.260Z,0.60
2022-11-17T16:21:35.482Z,0.50
2022-11-17T16:24:03.499Z,0.60
2022-11-17T16:26:31.199Z,0.50
2022-11-17T16:29:07.071Z,1.00
2022-11-17T16:31:36.116Z,0.77
2022-11-17T16:34:11.984Z,0.73
2022-11-17T16:36:40.560Z,0.60
2022-11-17T16:39:10.950Z,2.00
2022-11-17T16:41:40.115Z,1.70
2022-11-17T16:44:10.251Z,1.10
2022-11-17T16:46:38.311Z,1.10
2022-11-17T16:49:07.452Z,1.07
2022-11-17T16:51:35.323Z,0.97
2022-11-17T16:54:07.813Z,1.20
2022-11-17T16:56:35.270Z,1.20
2022-11-17T16:59:02.571Z,0.90
2022-11-17T17:01:32.482Z,0.90
2022-11-17T17:04:05.444Z,0.70
2022-11-17T17:06:33.514Z,0.80
2022-11-17T17:09:04.681Z,0.80
2022-11-17T17:11:33.873Z,1.10
2022-11-17T17:14:03.587Z,0.87
2022-11-17T17:16:32.982Z,1.00
2022-11-17T17:19:02.387Z,0.80
2022-11-17T17:21:30.110Z,0.87
2022-11-17T17:23:58.187Z,1.00
2022-11-17T17:26:27.942Z,0.80
2022-11-17T17:28:57.607Z,1.00
2022-11-17T17:31:27.155Z,0.83
2022-11-17T17:33:55.452Z,0.70
2022-11-17T17:36:24.932Z,1.00
2022-11-17T17:38:56.442Z,0.77
2022-11-17T17:41:26.519Z,0.83
2022-11-17T17:44:02.524Z,0.67
2022-11-17T17:46:31.964Z,1.00
2022-11-17T17:48:59.792Z,0.70
2022-11-17T17:51:28.684Z,0.70
2022-11-17T17:53:58.383Z,0.73
2022-11-17T17:56:25.782Z,0.70
2022-11-17T17:58:55.585Z,0.60
2022-11-17T18:01:28.372Z,0.60
2022-11-17T18:04:09.110Z,0.70
2022-11-17T18:06:42.240Z,0.60
2022-11-17T18:09:11.061Z,0.60
2022-11-17T18:11:45.884Z,0.60
2022-11-17T18:14:14.070Z,0.60
2022-11-17T18:16:41.685Z,0.60
2022-11-17T18:19:10.121Z,0.80
2022-11-17T18:21:37.397Z,0.60
2022-11-17T18:24:05.465Z,0.63
2022-11-17T18:26:35.540Z,0.50
2022-11-17T18:29:06.324Z,0.60
2022-11-17T18:31:35.459Z,0.70
2022-11-17T18:34:05.928Z,0.60
2022-11-17T18:36:34.951Z,0.50
2022-11-17T18:39:02.367Z,0.80
2022-11-17T18:41:31.640Z,0.70
2022-11-17T18:43:58.976Z,0.60
2022-11-17T18:46:30.731Z,0.80
2022-11-17T18:48:59.005Z,0.70
2022-11-17T18:51:29.255Z,0.83
2022-11-17T18:53:58.124Z,0.93
2022-11-17T18:56:28.384Z,0.70
2022-11-17T18:58:55.682Z,0.60
2022-11-17T19:01:30.888Z,0.93
2022-11-17T19:04:02.901Z,0.67
2022-11-17T19:06:30.927Z,0.77
2022-11-17T19:09:00.000Z,0.60
2022-11-17T19:11:30.896Z,0.60
2022-11-17T19:14:02.401Z,0.70
2022-11-17T19:16:31.959Z,0.87
2022-11-17T19:19:00.539Z,0.60
2022-11-17T19:21:30.641Z,0.70
2022-11-17T19:24:00.733Z,0.77
2022-11-17T19:26:32.655Z,0.70
2022-11-17T19:29:15.679Z,0.80
2022-11-17T19:31:44.965Z,0.60
2022-11-17T19:34:12.685Z,0.80
2022-11-17T19:36:40.180Z,0.80
2022-11-17T19:39:08.105Z,1.00
2022-11-17T19:41:37.648Z,0.77
2022-11-17T19:44:08.875Z,1.00
2022-11-17T19:46:36.514Z,1.00
2022-11-17T19:49:06.117Z,0.70
2022-11-17T19:51:36.967Z,0.63
2022-11-17T19:54:07.419Z,0.80
2022-11-17T19:56:35.676Z,0.80
2022-11-17T19:59:03.593Z,1.23
2022-11-17T20:01:32.252Z,1.00
2022-11-17T20:04:01.564Z,0.77
2022-11-17T20:06:34.920Z,1.00
2022-11-17T20:09:05.691Z,1.00
2022-11-17T20:11:33.231Z,0.80
2022-11-17T20:14:00.577Z,0.90
2022-11-17T20:16:28.158Z,1.30
2022-11-17T20:18:57.905Z,1.10
2022-11-17T20:21:26.239Z,1.00
2022-11-17T20:23:54.614Z,1.20
2022-11-17T20:26:29.067Z,1.33
2022-11-17T20:28:59.547Z,1.13
2022-11-17T20:31:30.223Z,1.27
2022-11-17T20:34:00.886Z,1.43
2022-11-17T20:36:31.088Z,1.43
2022-11-17T20:39:01.104Z,1.60
2022-11-17T20:41:29.379Z,1.50
2022-11-17T20:43:58.822Z,1.70
2022-11-17T20:46:26.739Z,1.30
2022-11-17T20:48:54.104Z,1.43
2022-11-17T20:51:23.616Z,1.53
2022-11-17T20:53:51.305Z,1.67
2022-11-17T20:56:19.569Z,1.53
2022-11-17T20:58:46.781Z,2.00
2022-11-17T21:01:20.097Z,1.43
2022-11-17T21:03:48.540Z,1.60
2022-11-17T21:06:16.882Z,1.57
2022-11-17T21:08:45.435Z,1.90
2022-11-17T21:11:35.057Z,1.70
2022-11-17T21:14:03.291Z,1.33
2022-11-17T21:16:30.603Z,1.60
2022-11-17T21:18:57.959Z,1.50
2022-11-17T21:21:25.264Z,1.53
2022-11-17T21:23:55.873Z,1.50
2022-11-17T21:26:23.516Z,1.50
2022-11-17T21:28:50.934Z,1.67
2022-11-17T21:31:24.752Z,1.40
2022-11-17T21:33:54.915Z,2.00
2022-11-17T21:36:24.082Z,1.83
2022-11-17T21:38:52.318Z,1.90
2022-11-17T21:41:25.151Z,1.87
2022-11-17T21:43:54.041Z,2.23
2022-11-17T21:46:23.487Z,1.80
2022-11-17T21:48:52.578Z,2.00
2022-11-17T21:51:25.765Z,2.00
2022-11-17T21:53:58.174Z,1.73
2022-11-17T21:56:26.969Z,2.20
2022-11-17T21:58:59.680Z,2.30
2022-11-17T22:01:28.912Z,1.60
2022-11-17T22:03:56.365Z,1.90
2022-11-17T22:06:25.110Z,1.80
2022-11-17T22:08:55.526Z,2.00
2022-11-17T22:11:37.012Z,2.07
2022-11-17T22:14:18.096Z,1.83
2022-11-17T22:16:52.055Z,1.87
2022-11-17T22:19:21.194Z,1.90
2022-11-17T22:21:50.627Z,1.73
2022-11-17T22:24:18.537Z,1.87
2022-11-17T22:26:46.379Z,1.90
2022-11-17T22:29:20.822Z,1.90
2022-11-17T22:31:49.379Z,2.00
2022-11-17T22:34:17.613Z,1.80
2022-11-17T22:36:46.064Z,2.03
2022-11-17T22:39:14.283Z,1.70
2022-11-17T22:41:42.343Z,2.10
2022-11-17T22:44:13.559Z,1.97
2022-11-17T22:46:42.097Z,2.10
2022-11-17T22:49:10.290Z,1.87
2022-11-17T22:51:56.357Z,1.93
2022-11-17T22:54:23.730Z,1.90
2022-11-17T22:56:50.971Z,1.67
2022-11-17T22:59:18.515Z,1.90
2022-11-17T23:01:46.030Z,2.07
2022-11-17T23:04:14.307Z,1.90
2022-11-17T23:06:41.550Z,1.83
2022-11-17T23:09:09.182Z,2.17
2022-11-17T23:11:38.318Z,1.70
2022-11-17T23:14:11.559Z,1.87
2022-11-17T23:16:39.433Z,2.10
2022-11-17T23:19:09.656Z,1.73
2022-11-17T23:21:36.988Z,1.50
2022-11-17T23:24:04.911Z,1.97
2022-11-17T23:26:32.169Z,1.90
2022-11-17T23:28:59.675Z,1.90
2022-11-17T23:31:30.140Z,2.10
2022-11-17T23:33:57.686Z,2.10
2022-11-17T23:36:25.260Z,2.03
2022-11-17T23:38:54.803Z,2.60
2022-11-17T23:41:22.134Z,2.00
2022-11-17T23:43:54.310Z,2.30
2022-11-17T23:46:24.675Z,2.20
2022-11-17T23:48:52.479Z,2.00
2022-11-17T23:51:21.845Z,1.97
2022-11-17T23:53:49.757Z,2.00
2022-11-17T23:56:19.056Z,2.10
2022-11-17T23:58:46.581Z,2.30
